createdAt,value
2023-04-21T00:01:59.132Z,17.43
2023-04-21T00:04:26.392Z,17.70
2023-04-21T00:06:53.544Z,17.23
2023-04-21T00:09:21.191Z,16.60
2023-04-21T00:11:48.533Z,17.77
2023-04-21T00:14:15.311Z,16.90
2023-04-21T00:16:42.358Z,16.87
2023-04-21T00:19:09.431Z,17.13
2023-04-21T00:21:36.761Z,15.83
2023-04-21T00:24:03.928Z,16.67
2023-04-21T00:26:31.011Z,16.50
2023-04-21T00:28:58.056Z,16.77
2023-04-21T00:31:25.233Z,16.97
2023-04-21T00:33:52.345Z,16.50
2023-04-21T00:36:24.661Z,14.80
2023-04-21T00:38:51.691Z,16.97
2023-04-21T00:41:18.729Z,17.20
2023-04-21T00:44:05.311Z,16.37
2023-04-21T00:46:33.384Z,16.13
2023-04-21T00:49:03.116Z,15.73
2023-04-21T00:51:32.993Z,16.43
2023-04-21T00:54:02.329Z,15.93
2023-04-21T00:56:32.024Z,16.50
2023-04-21T00:59:00.400Z,16.17
2023-04-21T01:01:29.871Z,15.03
2023-04-21T01:03:59.575Z,15.57
2023-04-21T01:06:32.098Z,16.60
2023-04-21T01:08:59.322Z,15.57
2023-04-21T01:11:26.711Z,15.43
2023-04-21T01:13:54.448Z,15.67
2023-04-21T01:16:23.079Z,16.23
2023-04-21T01:18:50.683Z,15.00
2023-04-21T01:21:18.979Z,15.20
2023-04-21T01:23:46.039Z,15.77
2023-04-21T01:26:13.128Z,16.20
2023-04-21T01:28:40.343Z,15.30
2023-04-21T01:31:07.448Z,15.80
2023-04-21T01:33:34.627Z,15.17
2023-04-21T01:36:01.755Z,15.67
2023-04-21T01:38:28.830Z,15.07
2023-04-21T01:40:59.286Z,14.57
2023-04-21T01:43:28.041Z,14.97
2023-04-21T01:45:56.972Z,15.40
2023-04-21T01:48:24.088Z,15.60
2023-04-21T01:50:51.184Z,14.43
2023-04-21T01:53:18.259Z,15.00
2023-04-21T01:55:44.816Z,15.83
2023-04-21T01:58:11.903Z,14.93
2023-04-21T02:00:38.997Z,13.93
2023-04-21T02:03:06.565Z,15.10
2023-04-21T02:05:33.690Z,15.33
2023-04-21T02:08:00.909Z,15.50
2023-04-21T02:10:27.585Z,15.27
2023-04-21T02:12:54.639Z,14.80
2023-04-21T02:15:21.822Z,13.73
2023-04-21T02:17:48.549Z,15.10
2023-04-21T02:20:15.600Z,14.23
2023-04-21T02:22:42.672Z,14.47
2023-04-21T02:25:09.901Z,13.43
2023-04-21T02:27:39.055Z,14.17
2023-04-21T02:30:06.914Z,14.60
2023-04-21T02:32:34.088Z,14.30
2023-04-21T02:35:01.203Z,14.43
2023-04-21T02:37:28.226Z,14.07
2023-04-21T02:39:55.238Z,14.83
2023-04-21T02:42:22.337Z,13.63
2023-04-21T02:44:49.536Z,15.23
2023-04-21T02:47:16.891Z,14.90
2023-04-21T02:49:44.018Z,14.33
2023-04-21T02:52:12.720Z,14.43
2023-04-21T02:54:39.867Z,13.03
2023-04-21T02:57:06.938Z,14.57
2023-04-21T02:59:34.098Z,13.83
2023-04-21T03:02:01.345Z,14.27
2023-04-21T03:04:28.680Z,13.67
2023-04-21T03:06:56.339Z,13.73
2023-04-21T03:09:23.469Z,13.33
2023-04-21T03:11:50.107Z,14.33
2023-04-21T03:14:19.059Z,13.43
2023-04-21T03:16:47.244Z,13.77
2023-04-21T03:19:14.355Z,13.80
2023-04-21T03:21:41.379Z,13.13
2023-04-21T03:24:08.542Z,13.60
2023-04-21T03:26:35.861Z,14.47
2023-04-21T03:29:02.525Z,12.47
2023-04-21T03:31:29.703Z,13.90
2023-04-21T03:33:56.958Z,14.60
2023-04-21T03:36:24.079Z,13.43
2023-04-21T03:38:51.178Z,13.20
2023-04-21T03:41:18.348Z,14.63
2023-04-21T03:43:45.403Z,13.30
2023-04-21T03:46:19.792Z,13.37
2023-04-21T03:48:47.433Z,13.07
2023-04-21T03:51:14.774Z,13.83
2023-04-21T03:53:41.550Z,13.20
2023-04-21T03:56:08.800Z,14.50
2023-04-21T03:58:35.683Z,14.20
2023-04-21T04:01:02.814Z,13.53
2023-04-21T04:03:29.966Z,14.07
2023-04-21T04:05:56.711Z,13.37
2023-04-21T04:08:23.827Z,14.00
2023-04-21T04:10:51.065Z,12.83
2023-04-21T04:13:18.288Z,13.40
2023-04-21T04:15:45.407Z,13.97
2023-04-21T04:18:12.442Z,13.60
2023-04-21T04:20:39.522Z,13.13
2023-04-21T04:23:06.596Z,14.10
2023-04-21T04:25:33.602Z,13.53
2023-04-21T04:28:00.793Z,13.73
2023-04-21T04:30:30.181Z,13.80
2023-04-21T04:32:58.021Z,13.73
2023-04-21T04:35:25.137Z,13.57
2023-04-21T04:37:52.222Z,12.93
2023-04-21T04:40:20.526Z,13.83
2023-04-21T04:42:48.873Z,13.03
2023-04-21T04:45:16.641Z,12.63
2023-04-21T04:47:44.456Z,12.83
2023-04-21T04:50:11.542Z,13.80
2023-04-21T04:52:39.247Z,13.30
2023-04-21T04:55:07.203Z,13.40
2023-04-21T04:57:34.248Z,12.73
2023-04-21T05:00:01.299Z,13.73
2023-04-21T05:02:28.642Z,12.67
2023-04-21T05:04:55.949Z,13.03
2023-04-21T05:07:23.148Z,14.10
2023-04-21T05:09:50.287Z,14.40
2023-04-21T05:12:17.322Z,14.10
2023-04-21T05:14:44.445Z,13.90
2023-04-21T05:17:11.962Z,12.20
2023-04-21T05:19:38.989Z,14.73
2023-04-21T05:22:06.544Z,13.07
2023-04-21T05:24:33.972Z,13.60
2023-04-21T05:27:02.883Z,13.30
2023-04-21T05:29:30.105Z,12.63
2023-04-21T05:31:57.159Z,13.03
2023-04-21T05:34:24.232Z,13.80
2023-04-21T05:36:52.175Z,13.23
2023-04-21T05:39:19.001Z,13.30
2023-04-21T05:41:46.092Z,14.23
2023-04-21T05:44:13.656Z,13.30
2023-04-21T05:46:40.796Z,13.90
2023-04-21T05:49:08.174Z,13.73
2023-04-21T05:51:35.223Z,14.23
2023-04-21T05:54:02.275Z,13.20
2023-04-21T05:56:28.944Z,12.93
2023-04-21T05:58:56.132Z,14.00
2023-04-21T06:01:23.233Z,13.73
2023-04-21T06:03:50.724Z,14.10
2023-04-21T06:06:17.952Z,12.73
2023-04-21T06:08:45.045Z,13.00
2023-04-21T06:11:12.139Z,12.80
2023-04-21T06:13:39.877Z,13.00
2023-04-21T06:16:08.778Z,12.57
2023-04-21T06:18:36.141Z,12.00
2023-04-21T06:21:03.195Z,11.43
2023-04-21T06:23:30.397Z,11.43
2023-04-21T06:26:05.498Z,11.80
2023-04-21T06:28:33.282Z,10.90
2023-04-21T06:31:01.162Z,11.77
2023-04-21T06:33:28.370Z,11.33
2023-04-21T06:35:55.599Z,11.10
2023-04-21T06:38:22.369Z,12.27
2023-04-21T06:40:49.439Z,10.30
2023-04-21T06:43:16.751Z,11.63
2023-04-21T06:45:43.842Z,11.30
2023-04-21T06:48:11.009Z,11.87
2023-04-21T06:50:38.229Z,10.53
2023-04-21T06:53:05.507Z,10.83
2023-04-21T06:55:32.685Z,11.07
2023-04-21T06:57:59.850Z,11.33
2023-04-21T07:00:26.960Z,11.23
2023-04-21T07:02:54.099Z,11.30
2023-04-21T07:05:21.218Z,10.23
2023-04-21T07:07:48.297Z,10.73
2023-04-21T07:10:19.113Z,10.63
2023-04-21T07:12:46.148Z,10.67
2023-04-21T07:15:13.278Z,10.40
2023-04-21T07:17:40.394Z,10.50
2023-04-21T07:20:07.911Z,10.27
2023-04-21T07:22:36.072Z,10.90
2023-04-21T07:25:06.396Z,10.67
2023-04-21T07:27:33.898Z,10.77
2023-04-21T07:30:00.940Z,11.07
2023-04-21T07:32:28.099Z,11.10
2023-04-21T07:34:55.234Z,10.77
2023-04-21T07:37:22.904Z,10.77
2023-04-21T07:39:50.659Z,10.70
2023-04-21T07:42:17.678Z,10.70
2023-04-21T07:44:44.825Z,10.87
2023-04-21T07:47:12.014Z,10.77
2023-04-21T07:49:39.049Z,10.00
2023-04-21T07:52:06.464Z,10.07
2023-04-21T07:54:33.584Z,10.97
2023-04-21T07:57:02.503Z,10.80
2023-04-21T07:59:29.225Z,10.03
2023-04-21T08:01:56.522Z,10.33
2023-04-21T08:04:24.024Z,10.87
2023-04-21T08:06:51.498Z,10.23
2023-04-21T08:09:18.862Z,10.60
2023-04-21T08:11:47.220Z,10.40
2023-04-21T08:14:14.407Z,11.10
2023-04-21T08:16:42.287Z,9.50
2023-04-21T08:19:09.685Z,10.10
2023-04-21T08:21:36.982Z,9.97
2023-04-21T08:24:04.162Z,9.90
2023-04-21T08:26:33.614Z,9.83
2023-04-21T08:29:03.501Z,9.63
2023-04-21T08:31:31.522Z,10.00
2023-04-21T08:34:02.764Z,9.53
2023-04-21T08:36:31.639Z,9.83
2023-04-21T08:38:59.614Z,9.70
2023-04-21T08:41:27.118Z,10.57
2023-04-21T08:43:54.242Z,8.63
2023-04-21T08:46:22.768Z,9.97
2023-04-21T08:48:50.030Z,9.43
2023-04-21T08:51:28.047Z,9.60
2023-04-21T08:53:55.245Z,9.30
2023-04-21T08:56:22.949Z,8.87
2023-04-21T08:58:49.995Z,9.00
2023-04-21T09:01:17.172Z,8.60
2023-04-21T09:03:44.366Z,9.63
2023-04-21T09:06:15.303Z,9.47
2023-04-21T09:08:44.181Z,8.13
2023-04-21T09:11:14.877Z,9.83
2023-04-21T09:13:42.990Z,9.83
2023-04-21T09:16:21.410Z,8.87
2023-04-21T09:18:49.004Z,8.70
2023-04-21T09:21:18.030Z,8.23
2023-04-21T09:23:47.591Z,8.53
2023-04-21T09:26:15.935Z,8.43
2023-04-21T09:28:44.485Z,7.87
2023-04-21T09:31:21.539Z,7.67
2023-04-21T09:36:32.398Z,7.57
2023-04-21T09:39:29.165Z,8.43
2023-04-21T09:41:50.889Z,8.30
2023-04-21T09:44:18.643Z,7.47
2023-04-21T09:46:49.876Z,7.63
2023-04-21T09:49:17.887Z,7.30
2023-04-21T09:54:29.197Z,6.80
2023-04-21T09:56:59.138Z,7.43
2023-04-21T09:59:30.566Z,6.73
2023-04-21T10:01:59.320Z,6.80
2023-04-21T10:04:27.456Z,6.40
2023-04-21T10:06:55.544Z,6.30
2023-04-21T10:09:24.959Z,5.50
2023-04-21T10:11:53.870Z,5.87
2023-04-21T10:14:21.421Z,6.47
2023-04-21T10:17:03.846Z,6.43
2023-04-21T10:19:36.105Z,6.33
2023-04-21T10:22:03.192Z,6.10
2023-04-21T10:24:30.805Z,5.70
2023-04-21T10:27:02.152Z,6.47
2023-04-21T10:29:40.260Z,5.90
2023-04-21T10:32:32.860Z,6.00
2023-04-21T10:34:59.984Z,5.37
2023-04-21T10:37:27.011Z,6.20
2023-04-21T10:39:55.410Z,6.30
2023-04-21T10:42:24.937Z,5.57
2023-04-21T10:44:57.617Z,5.53
2023-04-21T10:47:29.106Z,4.57
2023-04-21T10:49:57.993Z,4.80
2023-04-21T10:52:33.917Z,4.77
2023-04-21T10:55:07.120Z,4.80
2023-04-21T10:57:35.357Z,4.73
2023-04-21T11:00:06.795Z,4.80
2023-04-21T11:02:37.370Z,4.37
2023-04-21T11:05:06.555Z,4.60
2023-04-21T11:07:33.729Z,3.97
2023-04-21T11:10:05.908Z,4.70
2023-04-21T11:12:37.952Z,4.60
2023-04-21T11:15:14.328Z,4.17
2023-04-21T11:17:43.578Z,4.20
2023-04-21T11:20:10.722Z,4.90
2023-04-21T11:22:38.681Z,4.67
2023-04-21T11:25:05.960Z,4.23
2023-04-21T11:27:32.966Z,4.10
2023-04-21T11:30:03.643Z,4.30
2023-04-21T11:32:30.811Z,4.40
2023-04-21T11:34:57.894Z,4.47
2023-04-21T11:37:27.871Z,4.17
2023-04-21T11:39:59.445Z,4.23
2023-04-21T11:42:26.696Z,3.90
2023-04-21T11:44:57.034Z,4.67
2023-04-21T11:47:28.174Z,4.10
2023-04-21T11:49:56.997Z,4.43
2023-04-21T11:52:29.182Z,4.17
2023-04-21T11:55:04.270Z,3.70
2023-04-21T11:57:32.680Z,4.17
2023-04-21T12:00:00.704Z,4.20
2023-04-21T12:02:30.023Z,4.23
2023-04-21T12:05:34.540Z,4.13
2023-04-21T12:08:01.655Z,3.93
2023-04-21T12:10:30.370Z,4.00
2023-04-21T12:12:57.442Z,3.97
2023-04-21T12:15:24.534Z,4.43
2023-04-21T12:17:53.197Z,4.20
2023-04-21T12:20:24.457Z,3.90
2023-04-21T12:22:52.351Z,4.10
2023-04-21T12:25:19.137Z,3.70
2023-04-21T12:27:54.042Z,3.83
2023-04-21T12:30:21.282Z,3.20
2023-04-21T12:32:48.739Z,3.47
2023-04-21T12:35:16.065Z,3.63
2023-04-21T12:37:43.230Z,3.30
2023-04-21T12:40:10.613Z,3.17
2023-04-21T12:42:38.382Z,3.53
2023-04-21T12:45:06.365Z,3.63
2023-04-21T12:47:33.462Z,3.83
2023-04-21T12:50:00.527Z,3.40
2023-04-21T12:52:27.641Z,3.73
2023-04-21T12:54:54.804Z,3.23
2023-04-21T12:57:21.938Z,3.17
2023-04-21T12:59:49.119Z,3.13
2023-04-21T13:02:16.715Z,3.57
2023-04-21T13:04:43.935Z,2.87
2023-04-21T13:07:11.185Z,2.97
2023-04-21T13:09:38.608Z,3.20
2023-04-21T13:12:05.878Z,3.33
2023-04-21T13:14:32.956Z,3.10
2023-04-21T13:17:00.224Z,3.13
2023-04-21T13:19:28.606Z,3.10
2023-04-21T13:21:56.343Z,3.00
2023-04-21T13:24:23.389Z,2.90
2023-04-21T13:26:50.480Z,3.67
2023-04-21T13:29:17.708Z,4.00
2023-04-21T13:31:44.750Z,3.77
2023-04-21T13:34:11.822Z,3.10
2023-04-21T13:36:39.000Z,3.40
2023-04-21T13:39:09.373Z,4.00
2023-04-21T13:41:36.454Z,3.10
2023-04-21T13:44:03.656Z,2.50
2023-04-21T13:46:30.918Z,3.17
2023-04-21T13:48:59.273Z,3.63
2023-04-21T13:51:26.438Z,3.80
2023-04-21T13:53:53.074Z,3.33
2023-04-21T13:56:20.140Z,3.70
2023-04-21T13:58:46.851Z,3.77
2023-04-21T14:01:14.848Z,3.57
2023-04-21T14:03:42.649Z,3.70
2023-04-21T14:06:09.632Z,3.53
2023-04-21T14:08:36.751Z,3.90
2023-04-21T14:11:04.409Z,3.93
2023-04-21T14:13:38.194Z,3.87
2023-04-21T14:16:11.634Z,3.50
2023-04-21T14:18:44.165Z,4.00
2023-04-21T14:21:11.604Z,3.43
2023-04-21T14:23:38.797Z,3.20
2023-04-21T14:26:06.136Z,4.10
2023-04-21T14:28:33.216Z,3.87
2023-04-21T14:31:00.250Z,4.00
2023-04-21T14:33:27.434Z,3.93
2023-04-21T14:38:29.515Z,3.40
2023-04-21T14:40:56.567Z,3.63
2023-04-21T14:43:23.735Z,4.43
2023-04-21T14:45:51.013Z,3.93
2023-04-21T14:48:18.231Z,3.97
2023-04-21T14:50:45.380Z,3.27
2023-04-21T14:53:12.477Z,3.77
2023-04-21T14:55:39.531Z,3.43
2023-04-21T14:58:07.316Z,4.30
2023-04-21T15:00:36.450Z,3.80
2023-04-21T15:03:04.007Z,3.43
2023-04-21T15:05:32.469Z,3.63
2023-04-21T15:07:59.577Z,3.50
2023-04-21T15:10:26.661Z,3.50
2023-04-21T15:12:53.717Z,3.60
2023-04-21T15:15:20.873Z,3.93
2023-04-21T15:17:47.970Z,4.00
2023-04-21T15:20:15.148Z,2.97
2023-04-21T15:22:42.520Z,3.53
2023-04-21T15:25:09.796Z,3.77
2023-04-21T15:27:36.795Z,3.40
2023-04-21T15:30:04.472Z,3.50
2023-04-21T15:32:31.621Z,3.97
2023-04-21T15:34:58.729Z,3.60
2023-04-21T15:37:26.083Z,4.30
2023-04-21T15:39:53.308Z,4.03
2023-04-21T15:42:20.658Z,3.60
2023-04-21T15:44:47.840Z,3.30
2023-04-21T15:47:18.095Z,3.70
2023-04-21T15:49:45.334Z,3.60
2023-04-21T15:52:12.180Z,3.40
2023-04-21T15:54:39.551Z,3.63
2023-04-21T15:57:07.046Z,3.90
2023-04-21T15:59:34.315Z,4.13
2023-04-21T16:02:01.610Z,3.73
2023-04-21T16:04:28.984Z,4.87
2023-04-21T16:06:56.375Z,3.43
2023-04-21T16:09:23.636Z,3.43
2023-04-21T16:11:51.303Z,3.83
2023-04-21T16:14:18.762Z,3.50
2023-04-21T16:16:46.408Z,3.80
2023-04-21T16:19:13.647Z,3.60
2023-04-21T16:21:41.950Z,3.53
2023-04-21T16:24:09.580Z,3.13
2023-04-21T16:26:36.958Z,3.43
2023-04-21T16:29:04.237Z,3.20
2023-04-21T16:31:31.625Z,3.73
2023-04-21T16:33:59.927Z,3.60
2023-04-21T16:36:32.253Z,3.30
2023-04-21T16:38:59.519Z,3.63
2023-04-21T16:41:26.600Z,3.70
2023-04-21T16:43:53.666Z,3.23
2023-04-21T16:46:20.846Z,3.33
2023-04-21T16:48:47.990Z,3.90
2023-04-21T16:51:15.215Z,3.30
2023-04-21T16:53:42.480Z,3.57
2023-04-21T16:56:09.684Z,3.90
2023-04-21T16:58:37.503Z,3.73
2023-04-21T17:01:04.805Z,3.53
2023-04-21T17:03:32.093Z,3.20
2023-04-21T17:05:59.265Z,3.63
2023-04-21T17:08:26.313Z,3.63
2023-04-21T17:10:55.330Z,3.60
2023-04-21T17:13:22.326Z,3.23
2023-04-21T17:15:49.381Z,4.03
2023-04-21T17:18:16.529Z,3.30
2023-04-21T17:20:43.721Z,3.80
2023-04-21T17:23:10.761Z,3.23
2023-04-21T17:25:38.183Z,3.37
2023-04-21T17:28:05.424Z,3.50
2023-04-21T17:30:32.472Z,3.60
2023-04-21T17:33:12.628Z,3.47
2023-04-21T17:35:55.800Z,3.60
2023-04-21T17:38:29.122Z,3.40
2023-04-21T17:40:56.286Z,3.10
2023-04-21T17:43:23.387Z,3.77
2023-04-21T17:45:51.580Z,3.07
2023-04-21T17:48:19.048Z,3.07
2023-04-21T17:50:46.115Z,3.77
2023-04-21T17:53:13.293Z,3.03
2023-04-21T17:55:40.256Z,3.03
2023-04-21T17:58:08.764Z,3.00
2023-04-21T18:00:37.963Z,2.80
2023-04-21T18:03:05.241Z,3.10
2023-04-21T18:05:32.390Z,3.07
2023-04-21T18:08:00.603Z,3.07
2023-04-21T18:10:29.637Z,2.90
2023-04-21T18:12:57.161Z,2.70
2023-04-21T18:15:24.343Z,3.30
2023-04-21T18:17:52.980Z,2.90
2023-04-21T18:20:20.363Z,3.17
2023-04-21T18:22:48.434Z,3.00
2023-04-21T18:25:16.296Z,2.40
2023-04-21T18:27:44.476Z,3.03
2023-04-21T18:30:11.697Z,2.60
2023-04-21T18:32:39.054Z,3.20
2023-04-21T18:35:07.067Z,2.83
2023-04-21T18:37:33.921Z,2.90
2023-04-21T18:40:01.073Z,2.90
2023-04-21T18:42:27.983Z,3.00
2023-04-21T18:44:57.749Z,2.60
2023-04-21T18:47:25.687Z,2.40
2023-04-21T18:49:52.916Z,2.33
2023-04-21T18:52:19.931Z,2.87
2023-04-21T18:54:46.982Z,2.50
2023-04-21T18:57:14.086Z,2.43
2023-04-21T18:59:41.167Z,2.60
2023-04-21T19:02:10.994Z,1.87
2023-04-21T19:04:38.474Z,3.10
2023-04-21T19:07:09.800Z,2.33
2023-04-21T19:09:36.880Z,2.60
2023-04-21T19:12:04.344Z,2.93
2023-04-21T19:14:42.407Z,2.53
2023-04-21T19:17:13.583Z,2.47
2023-04-21T19:19:40.747Z,2.23
2023-04-21T19:22:07.818Z,2.20
2023-04-21T19:24:34.887Z,2.53
2023-04-21T19:27:02.227Z,2.20
2023-04-21T19:29:30.309Z,1.97
2023-04-21T19:31:57.520Z,2.30
2023-04-21T19:34:24.594Z,2.20
2023-04-21T19:36:52.853Z,2.50
2023-04-21T19:39:19.885Z,2.60
2023-04-21T19:41:46.906Z,2.30
2023-04-21T19:44:13.937Z,2.60
2023-04-21T19:46:44.247Z,3.27
2023-04-21T19:49:13.028Z,2.70
2023-04-21T19:51:41.153Z,3.00
2023-04-21T19:54:12.033Z,2.47
2023-04-21T19:56:39.518Z,2.80
2023-04-21T19:59:06.664Z,2.53
2023-04-21T20:01:33.957Z,2.47
2023-04-21T20:04:01.413Z,3.07
2023-04-21T20:06:28.741Z,3.10
2023-04-21T20:08:55.889Z,2.20
2023-04-21T20:11:23.169Z,2.83
2023-04-21T20:13:50.416Z,2.77
2023-04-21T20:16:20.759Z,2.70
2023-04-21T20:18:48.813Z,2.90
2023-04-21T20:21:15.977Z,2.70
2023-04-21T20:23:42.996Z,3.00
2023-04-21T20:26:10.209Z,2.92
2023-04-21T20:28:37.306Z,3.17
2023-04-21T20:31:04.552Z,3.30
2023-04-21T20:33:31.743Z,3.03
2023-04-21T20:36:02.400Z,3.83
2023-04-21T20:38:29.978Z,3.43
2023-04-21T20:40:57.024Z,3.13
2023-04-21T20:43:23.631Z,2.67
2023-04-21T20:45:50.730Z,3.10
2023-04-21T20:48:17.819Z,3.40
2023-04-21T20:50:46.377Z,3.40
2023-04-21T20:53:14.384Z,3.03
2023-04-21T20:55:41.400Z,3.17
2023-04-21T20:58:08.070Z,3.27
2023-04-21T21:00:35.744Z,3.40
2023-04-21T21:03:03.869Z,3.50
2023-04-21T21:05:33.241Z,3.10
2023-04-21T21:08:00.487Z,3.37
2023-04-21T21:10:28.085Z,3.10
2023-04-21T21:12:55.294Z,3.63
2023-04-21T21:15:22.452Z,3.43
2023-04-21T21:17:49.555Z,3.20
2023-04-21T21:20:16.670Z,3.47
2023-04-21T21:22:43.874Z,2.90
2023-04-21T21:25:11.367Z,2.70
2023-04-21T21:27:37.986Z,3.20
2023-04-21T21:30:05.667Z,3.47
2023-04-21T21:32:32.556Z,3.10
2023-04-21T21:34:59.679Z,3.23
2023-04-21T21:37:26.760Z,2.90
2023-04-21T21:39:55.182Z,3.50
2023-04-21T21:42:22.695Z,3.27
2023-04-21T21:44:50.004Z,3.40
2023-04-21T21:47:18.054Z,3.40
2023-04-21T21:49:45.395Z,3.60
2023-04-21T21:52:15.047Z,3.47
2023-04-21T21:54:42.186Z,3.50
2023-04-21T21:57:09.200Z,3.37
2023-04-21T21:59:36.659Z,4.03
2023-04-21T22:02:04.271Z,3.30
2023-04-21T22:04:32.064Z,3.10
2023-04-21T22:06:59.114Z,3.40
2023-04-21T22:09:26.145Z,3.40
2023-04-21T22:11:53.264Z,3.30
2023-04-21T22:14:23.174Z,3.37
2023-04-21T22:16:52.779Z,3.83
2023-04-21T22:19:20.366Z,3.80
2023-04-21T22:21:47.508Z,3.60
2023-04-21T22:24:14.609Z,3.33
2023-04-21T22:26:41.937Z,3.50
2023-04-21T22:29:09.091Z,3.70
2023-04-21T22:31:36.443Z,3.30
2023-04-21T22:34:03.617Z,3.80
2023-04-21T22:36:31.913Z,3.23
2023-04-21T22:38:58.954Z,3.73
2023-04-21T22:41:27.277Z,3.87
2023-04-21T22:43:54.292Z,3.47
2023-04-21T22:46:21.485Z,3.00
2023-04-21T22:48:48.672Z,3.23
2023-04-21T22:51:15.733Z,3.60
2023-04-21T22:53:42.745Z,3.70
2023-04-21T22:56:09.884Z,3.03
2023-04-21T22:58:37.018Z,2.97
2023-04-21T23:01:04.064Z,3.03
2023-04-21T23:03:31.503Z,3.50
2023-04-21T23:05:58.759Z,3.73
2023-04-21T23:08:25.395Z,3.57
2023-04-21T23:10:52.746Z,3.23
2023-04-21T23:13:19.851Z,3.37
2023-04-21T23:15:46.917Z,3.83
2023-04-21T23:18:13.994Z,3.67
2023-04-21T23:20:41.131Z,4.20
2023-04-21T23:23:07.779Z,3.43
2023-04-21T23:25:34.848Z,3.27
2023-04-21T23:28:01.906Z,3.17
2023-04-21T23:30:28.559Z,3.50
2023-04-21T23:32:55.153Z,3.57
2023-04-21T23:35:22.259Z,3.90
2023-04-21T23:37:49.338Z,3.40
2023-04-21T23:40:16.068Z,3.20
2023-04-21T23:42:47.382Z,3.30
2023-04-21T23:45:15.030Z,3.60
2023-04-21T23:47:42.278Z,3.67
2023-04-21T23:50:09.575Z,4.20
2023-04-21T23:52:36.687Z,3.50
2023-04-21T23:55:03.502Z,4.00
2023-04-21T23:57:30.545Z,4.30
2023-04-21T23:59:57.952Z,4.23
